Time,TemperatureF,DewpointF,PressureIn,WindDirection,WindDirectionDegrees,WindSpeedMPH,WindSpeedGustMPH,Humidity,HourlyPrecipIn,Conditions,Clouds,dailyrainin,SoftwareType,DateUTC
2013-01-28 00:05:00,32.2,32.0,30.16,SSW,208,2.0,-999.0,99,-99.99,,,0.00,weatherlink.com 1.10,2013-01-28 07:05:00,
2013-01-28 00:20:00,32.7,33.0,30.14,South,191,6.0,-999.0,100,-99.99,,,0.00,weatherlink.com 1.10,2013-01-28 07:20:00,
2013-01-28 00:35:00,32.8,33.0,30.14,WSW,247,2.0,-999.0,100,-99.99,,,0.00,weatherlink.com 1.10,2013-01-28 07:35:00,
2013-01-28 00:50:00,32.9,33.0,30.13,SW,223,2.0,-999.0,100,-99.99,,,0.00,weatherlink.com 1.10,2013-01-28 07:50:00,
2013-01-28 01:05:00,32.7,33.0,30.10,SW,227,0.0,-999.0,100,-99.99,,,0.00,weatherlink.com 1.10,2013-01-28 08:05:00,
2013-01-28 01:20:00,32.7,33.0,30.09,SSW,203,0.0,-999.0,100,-99.99,,,0.00,weatherlink.com 1.10,2013-01-28 08:20:00,
2013-01-28 01:35:00,32.4,32.0,30.09,SSW,204,0.0,-999.0,100,-99.99,,,0.00,weatherlink.com 1.10,2013-01-28 08:35:00,
2013-01-28 01:50:00,32.5,33.0,30.08,WSW,247,1.0,-999.0,100,-99.99,,,0.00,weatherlink.com 1.10,2013-01-28 08:50:00,
2013-01-28 02:05:00,32.2,32.0,30.07,WSW,258,0.0,-999.0,100,-99.99,,,0.00,weatherlink.com 1.10,2013-01-28 09:05:00,
2013-01-28 02:20:00,32.2,32.0,30.07,SW,230,2.0,-999.0,100,-99.99,,,0.00,weatherlink.com 1.10,2013-01-28 09:20:00,
2013-01-28 02:35:00,32.1,32.0,30.05,WSW,242,0.0,-999.0,100,-99.99,,,0.00,weatherlink.com 1.10,2013-01-28 09:35:00,
2013-01-28 02:50:00,31.9,32.0,30.05,SW,232,0.0,-999.0,100,-99.99,,,0.00,weatherlink.com 1.10,2013-01-28 09:50:00,
2013-01-28 03:05:00,31.9,32.0,30.08,SW,232,0.0,-999.0,100,-99.99,,,0.00,weatherlink.com 1.10,2013-01-28 10:05:00,
2013-01-28 03:20:00,31.9,32.0,30.08,SW,232,0.0,-999.0,100,-99.99,,,0.00,weatherlink.com 1.10,2013-01-28 10:20:00,
2013-01-28 03:35:00,31.9,32.0,30.08,SW,232,0.0,-999.0,100,-99.99,,,0.00,weatherlink.com 1.10,2013-01-28 10:35:00,
2013-01-28 03:50:00,31.9,32.0,30.07,SW,232,0.0,-999.0,100,-99.99,,,0.01,weatherlink.com 1.10,2013-01-28 10:50:00,
2013-01-28 04:05:00,31.9,32.0,30.08,SW,232,0.0,-999.0,100,-99.99,,,0.01,weatherlink.com 1.10,2013-01-28 11:05:00,
2013-01-28 04:20:00,31.8,32.0,30.07,SW,232,0.0,-999.0,100,-99.99,,,0.01,weatherlink.com 1.10,2013-01-28 11:20:00,
2013-01-28 04:35:00,31.6,32.0,30.06,SW,232,0.0,-999.0,100,-99.99,,,0.01,weatherlink.com 1.10,2013-01-28 11:35:00,
2013-01-28 04:50:00,31.6,32.0,30.06,SW,232,0.0,-999.0,100,-99.99,,,0.01,weatherlink.com 1.10,2013-01-28 11:50:00,
2013-01-28 05:05:00,31.6,32.0,30.06,SW,232,0.0,-999.0,100,-99.99,,,0.01,weatherlink.com 1.10,2013-01-28 12:05:00,
2013-01-28 05:20:00,31.6,32.0,30.06,SW,232,0.0,-999.0,100,-99.99,,,0.01,weatherlink.com 1.10,2013-01-28 12:20:00,
2013-01-28 05:35:00,31.9,32.0,30.07,SW,231,0.0,-999.0,100,-99.99,,,0.01,weatherlink.com 1.10,2013-01-28 12:35:00,
2013-01-28 05:50:00,31.8,32.0,30.08,SW,231,0.0,-999.0,100,-99.99,,,0.01,weatherlink.com 1.10,2013-01-28 12:50:00,
2013-01-28 06:05:00,31.8,32.0,30.09,SW,231,0.0,-999.0,100,-99.99,,,0.01,weatherlink.com 1.10,2013-01-28 13:05:00,
2013-01-28 06:20:00,31.5,32.0,30.09,SW,231,0.0,-999.0,100,-99.99,,,0.01,weatherlink.com 1.10,2013-01-28 13:20:00,
2013-01-28 06:36:00,31.3,31.0,30.09,SW,231,0.0,-999.0,100,-99.99,,,0.01,weatherlink.com 1.10,2013-01-28 13:36:00,
2013-01-28 06:50:00,31.3,31.0,30.09,SW,231,0.0,-999.0,100,-99.99,,,0.01,weatherlink.com 1.10,2013-01-28 13:50:00,
2013-01-28 07:06:00,31.2,31.0,30.11,SW,231,0.0,-999.0,100,-99.99,,,0.01,weatherlink.com 1.10,2013-01-28 14:06:00,
2013-01-28 07:21:00,31.3,31.0,30.10,SW,231,0.0,-999.0,100,-99.99,,,0.01,weatherlink.com 1.10,2013-01-28 14:21:00,
2013-01-28 07:35:00,31.3,31.0,30.10,SW,231,0.0,-999.0,100,-99.99,,,0.01,weatherlink.com 1.10,2013-01-28 14:35:00,
2013-01-28 07:51:00,31.3,31.0,30.10,SW,231,0.0,-999.0,100,-99.99,,,0.01,weatherlink.com 1.10,2013-01-28 14:51:00,
2013-01-28 08:05:00,31.5,32.0,30.10,SW,231,0.0,-999.0,100,-99.99,,,0.01,weatherlink.com 1.10,2013-01-28 15:05:00,
2013-01-28 08:20:00,31.5,32.0,30.08,SW,231,0.0,-999.0,100,-99.99,,,0.01,weatherlink.com 1.10,2013-01-28 15:20:00,
2013-01-28 08:35:00,31.3,31.0,30.11,SW,231,0.0,-999.0,100,-99.99,,,0.01,weatherlink.com 1.10,2013-01-28 15:35:00,
2013-01-28 08:51:00,31.5,32.0,30.11,SW,231,0.0,-999.0,100,-99.99,,,0.01,weatherlink.com 1.10,2013-01-28 15:51:00,
2013-01-28 09:06:00,31.5,32.0,30.10,SW,231,0.0,-999.0,100,-99.99,,,0.01,weatherlink.com 1.10,2013-01-28 16:06:00,
2013-01-28 09:21:00,31.3,31.0,30.09,SW,231,0.0,-999.0,100,-99.99,,,0.01,weatherlink.com 1.10,2013-01-28 16:21:00,
2013-01-28 09:35:00,31.3,31.0,30.09,SW,231,0.0,-999.0,100,-99.99,,,0.01,weatherlink.com 1.10,2013-01-28 16:35:00,
2013-01-28 09:50:00,31.3,31.0,30.09,SW,231,0.0,-999.0,100,-99.99,,,0.01,weatherlink.com 1.10,2013-01-28 16:50:00,
2013-01-28 10:05:00,31.3,31.0,30.11,SW,231,0.0,-999.0,100,-99.99,,,0.01,weatherlink.com 1.10,2013-01-28 17:05:00,
2013-01-28 10:21:00,31.3,31.0,30.11,SW,231,0.0,-999.0,100,-99.99,,,0.01,weatherlink.com 1.10,2013-01-28 17:21:00,
2013-01-28 10:35:00,31.5,32.0,30.09,SW,230,0.0,-999.0,100,-99.99,,,0.02,weatherlink.com 1.10,2013-01-28 17:35:00,
2013-01-28 10:50:00,31.3,31.0,30.09,SW,230,0.0,-999.0,100,-99.99,,,0.02,weatherlink.com 1.10,2013-01-28 17:50:00,
2013-01-28 11:05:00,31.2,31.0,30.11,SW,230,0.0,-999.0,100,-99.99,,,0.02,weatherlink.com 1.10,2013-01-28 18:05:00,
2013-01-28 11:20:00,31.2,31.0,30.10,SW,230,0.0,-999.0,100,-99.99,,,0.03,weatherlink.com 1.10,2013-01-28 18:20:00,
2013-01-28 11:35:00,31.2,31.0,30.10,SW,230,0.0,-999.0,100,-99.99,,,0.03,weatherlink.com 1.10,2013-01-28 18:35:00,
2013-01-28 11:51:00,31.0,31.0,30.09,SW,230,0.0,-999.0,100,-99.99,,,0.03,weatherlink.com 1.10,2013-01-28 18:51:00,
2013-01-28 12:05:00,30.7,31.0,30.06,SW,230,0.0,-999.0,100,-99.99,,,0.03,weatherlink.com 1.10,2013-01-28 19:05:00,
2013-01-28 12:20:00,30.6,31.0,30.05,SW,230,0.0,-999.0,100,-99.99,,,0.03,weatherlink.com 1.10,2013-01-28 19:20:00,
2013-01-28 12:35:00,31.0,31.0,30.05,SW,230,0.0,-999.0,100,-99.99,,,0.04,weatherlink.com 1.10,2013-01-28 19:35:00,
2013-01-28 12:50:00,31.6,32.0,30.03,SW,230,0.0,-999.0,100,-99.99,,,0.04,weatherlink.com 1.10,2013-01-28 19:50:00,
2013-01-28 13:06:00,31.6,32.0,30.03,SW,230,0.0,-999.0,100,-99.99,,,0.04,weatherlink.com 1.10,2013-01-28 20:06:00,
2013-01-28 13:20:00,32.1,32.0,30.03,SW,230,0.0,-999.0,100,-99.99,,,0.05,weatherlink.com 1.10,2013-01-28 20:20:00,
2013-01-28 13:35:00,32.4,32.0,30.03,SW,230,0.0,-999.0,100,-99.99,,,0.05,weatherlink.com 1.10,2013-01-28 20:35:00,
2013-01-28 13:51:00,31.9,32.0,30.03,SW,228,0.0,-999.0,100,-99.99,,,0.06,weatherlink.com 1.10,2013-01-28 20:51:00,
2013-01-28 14:05:00,31.6,31.0,30.04,SW,228,0.0,-999.0,99,-99.99,,,0.06,weatherlink.com 1.10,2013-01-28 21:05:00,
2013-01-28 14:21:00,31.6,31.0,30.05,SW,228,0.0,-999.0,99,-99.99,,,0.07,weatherlink.com 1.10,2013-01-28 21:21:00,
2013-01-28 14:35:00,32.1,32.0,30.04,SW,228,0.0,-999.0,99,-99.99,,,0.07,weatherlink.com 1.10,2013-01-28 21:35:00,
2013-01-28 14:51:00,34.0,34.0,30.02,SW,228,0.0,-999.0,99,-99.99,,,0.08,weatherlink.com 1.10,2013-01-28 21:51:00,
2013-01-28 15:05:00,34.1,33.0,30.02,SW,228,0.0,-999.0,96,-99.99,,,0.09,weatherlink.com 1.10,2013-01-28 22:05:00,
2013-01-28 15:19:00,33.8,32.0,30.02,SW,227,0.0,-999.0,94,-99.99,,,0.09,weatherlink.com 1.10,2013-01-28 22:19:00,
2013-01-28 15:35:00,32.2,31.0,30.05,SW,227,0.0,-999.0,94,-99.99,,,0.10,weatherlink.com 1.10,2013-01-28 22:35:00,
2013-01-28 15:50:00,31.5,29.0,30.07,SW,227,0.0,-999.0,90,-99.99,,,0.11,weatherlink.com 1.10,2013-01-28 22:50:00,
2013-01-28 16:04:00,30.3,28.0,30.08,SW,227,0.0,-999.0,89,-99.99,,,0.11,weatherlink.com 1.10,2013-01-28 23:04:00,
2013-01-28 16:19:00,29.3,27.0,30.08,SW,227,0.0,-999.0,89,-99.99,,,0.11,weatherlink.com 1.10,2013-01-28 23:19:00,
2013-01-28 16:34:00,28.1,25.0,30.11,SW,227,0.0,-999.0,89,-99.99,,,0.11,weatherlink.com 1.10,2013-01-28 23:34:00,
2013-01-28 16:50:00,27.9,25.0,30.11,SW,227,0.0,-999.0,87,-99.99,,,0.11,weatherlink.com 1.10,2013-01-28 23:50:00,
2013-01-28 17:05:00,27.0,23.0,30.14,SW,227,0.0,-999.0,86,-99.99,,,0.11,weatherlink.com 1.10,2013-01-29 00:05:00,
2013-01-28 17:20:00,27.0,22.0,30.14,SW,227,0.0,-999.0,81,-99.99,,,0.11,weatherlink.com 1.10,2013-01-29 00:20:00,
2013-01-28 17:35:00,26.6,22.0,30.15,SW,227,0.0,-999.0,84,-99.99,,,0.11,weatherlink.com 1.10,2013-01-29 00:35:00,
2013-01-28 17:50:00,25.7,21.0,30.14,SW,227,0.0,-999.0,83,-99.99,,,0.11,weatherlink.com 1.10,2013-01-29 00:50:00,
2013-01-28 18:05:00,25.3,20.0,30.17,SW,227,0.0,-999.0,81,-99.99,,,0.11,weatherlink.com 1.10,2013-01-29 01:05:00,
2013-01-28 18:20:00,24.8,20.0,30.16,SW,227,0.0,-999.0,81,-99.99,,,0.11,weatherlink.com 1.10,2013-01-29 01:20:00,
2013-01-28 18:35:00,24.1,20.0,30.19,SW,227,0.0,-999.0,85,-99.99,,,0.11,weatherlink.com 1.10,2013-01-29 01:35:00,
2013-01-28 18:50:00,23.9,20.0,30.19,SW,227,0.0,-999.0,84,-99.99,,,0.11,weatherlink.com 1.10,2013-01-29 01:50:00,
2013-01-28 19:05:00,23.3,20.0,30.18,SW,227,0.0,-999.0,85,-99.99,,,0.11,weatherlink.com 1.10,2013-01-29 02:05:00,
2013-01-28 19:20:00,23.2,20.0,30.18,SW,227,0.0,-999.0,86,-99.99,,,0.11,weatherlink.com 1.10,2013-01-29 02:20:00,
2013-01-28 19:35:00,23.2,20.0,30.17,SW,227,0.0,-999.0,87,-99.99,,,0.11,weatherlink.com 1.10,2013-01-29 02:35:00,
2013-01-28 19:50:00,23.5,20.0,30.17,SW,227,0.0,-999.0,87,-99.99,,,0.11,weatherlink.com 1.10,2013-01-29 02:50:00,
2013-01-28 20:05:00,23.6,21.0,30.14,SW,227,0.0,-999.0,88,-99.99,,,0.11,weatherlink.com 1.10,2013-01-29 03:05:00,
2013-01-28 20:20:00,23.6,21.0,30.14,SW,227,0.0,-999.0,89,-99.99,,,0.11,weatherlink.com 1.10,2013-01-29 03:20:00,
2013-01-28 20:35:00,23.6,21.0,30.14,SW,227,0.0,-999.0,89,-99.99,,,0.11,weatherlink.com 1.10,2013-01-29 03:35:00,
2013-01-28 20:50:00,23.6,21.0,30.13,SW,227,0.0,-999.0,90,-99.99,,,0.11,weatherlink.com 1.10,2013-01-29 03:50:00,
2013-01-28 21:05:00,23.5,21.0,30.14,SW,227,0.0,-999.0,91,-99.99,,,0.11,weatherlink.com 1.10,2013-01-29 04:05:00,
2013-01-28 21:20:00,23.5,22.0,30.14,SW,227,0.0,-999.0,92,-99.99,,,0.11,weatherlink.com 1.10,2013-01-29 04:20:00,
2013-01-28 21:35:00,23.0,21.0,30.13,SW,227,0.0,-999.0,93,-99.99,,,0.11,weatherlink.com 1.10,2013-01-29 04:35:00,
2013-01-28 21:50:00,22.7,21.0,30.14,SW,227,0.0,-999.0,93,-99.99,,,0.11,weatherlink.com 1.10,2013-01-29 04:50:00,
2013-01-28 22:05:00,22.2,21.0,30.14,SW,227,0.0,-999.0,93,-99.99,,,0.11,weatherlink.com 1.10,2013-01-29 05:05:00,
2013-01-28 22:20:00,21.9,20.0,30.14,SW,227,0.0,-999.0,93,-99.99,,,0.11,weatherlink.com 1.10,2013-01-29 05:20:00,
2013-01-28 22:35:00,21.8,20.0,30.13,SW,227,0.0,-999.0,93,-99.99,,,0.11,weatherlink.com 1.10,2013-01-29 05:35:00,
2013-01-28 22:50:00,21.4,20.0,30.15,SW,227,0.0,-999.0,92,-99.99,,,0.11,weatherlink.com 1.10,2013-01-29 05:50:00,
2013-01-28 23:05:00,20.6,19.0,30.15,SW,227,0.0,-999.0,92,-99.99,,,0.11,weatherlink.com 1.10,2013-01-29 06:05:00,
2013-01-28 23:20:00,20.0,18.0,30.16,SW,227,0.0,-999.0,92,-99.99,,,0.11,weatherlink.com 1.10,2013-01-29 06:20:00,
2013-01-28 23:35:00,19.5,18.0,30.16,SW,227,0.0,-999.0,92,-99.99,,,0.11,weatherlink.com 1.10,2013-01-29 06:35:00,
2013-01-28 23:50:00,19.1,17.0,30.16,SW,227,0.0,-999.0,92,-99.99,,,0.00,weatherlink.com 1.10,2013-01-29 06:50:00,